sensor_id;sensor_type;location;lat;lon;timestamp;pressure;altitude;pressure_sealevel;temperature;humidity
75891;BME280;64571;47.512;19.054;2023-12-14T00:01:23;99077.56;;;5.54;100.00
75891;BME280;64571;47.512;19.054;2023-12-14T00:04:26;99095.50;;;5.51;100.00
75891;BME280;64571;47.512;19.054;2023-12-14T00:07:29;99098.00;;;5.48;100.00
75891;BME280;64571;47.512;19.054;2023-12-14T00:10:32;99088.19;;;5.42;100.00
75891;BME280;64571;47.512;19.054;2023-12-14T00:13:35;99065.25;;;5.27;100.00
75891;BME280;64571;47.512;19.054;2023-12-14T00:16:38;99071.94;;;5.21;100.00
75891;BME280;64571;47.512;19.054;2023-12-14T00:19:40;99088.84;;;5.33;100.00
75891;BME280;64571;47.512;19.054;2023-12-14T00:22:43;99086.75;;;5.25;100.00
75891;BME280;64571;47.512;19.054;2023-12-14T00:25:46;99071.56;;;5.09;100.00
75891;BME280;64571;47.512;19.054;2023-12-14T00:28:48;99076.53;;;5.07;100.00
75891;BME280;64571;47.512;19.054;2023-12-14T00:31:51;99088.13;;;5.04;100.00
75891;BME280;64571;47.512;19.054;2023-12-14T00:34:54;99117.19;;;5.15;100.00
75891;BME280;64571;47.512;19.054;2023-12-14T00:37:56;99117.31;;;5.05;100.00
75891;BME280;64571;47.512;19.054;2023-12-14T00:40:59;99137.56;;;5.14;100.00
75891;BME280;64571;47.512;19.054;2023-12-14T00:44:02;99149.34;;;5.20;100.00
75891;BME280;64571;47.512;19.054;2023-12-14T00:47:05;99153.78;;;5.16;100.00
75891;BME280;64571;47.512;19.054;2023-12-14T00:50:07;99172.66;;;5.27;100.00
75891;BME280;64571;47.512;19.054;2023-12-14T00:53:10;99185.78;;;5.36;100.00
75891;BME280;64571;47.512;19.054;2023-12-14T00:56:13;99175.88;;;5.34;100.00
75891;BME280;64571;47.512;19.054;2023-12-14T00:59:16;99186.25;;;5.43;100.00
75891;BME280;64571;47.512;19.054;2023-12-14T01:02:18;99186.00;;;5.39;100.00
75891;BME280;64571;47.512;19.054;2023-12-14T01:05:21;99219.12;;;5.58;100.00
75891;BME280;64571;47.512;19.054;2023-12-14T01:08:24;99216.03;;;5.65;100.00
75891;BME280;64571;47.512;19.054;2023-12-14T01:11:26;99205.81;;;5.65;100.00
75891;BME280;64571;47.512;19.054;2023-12-14T01:14:29;99226.66;;;5.71;100.00
75891;BME280;64571;47.512;19.054;2023-12-14T01:17:32;99219.75;;;5.74;100.00
75891;BME280;64571;47.512;19.054;2023-12-14T01:20:38;99205.16;;;5.73;100.00
75891;BME280;64571;47.512;19.054;2023-12-14T01:23:41;99192.44;;;5.77;100.00
75891;BME280;64571;47.512;19.054;2023-12-14T01:26:43;99166.56;;;5.73;100.00
75891;BME280;64571;47.512;19.054;2023-12-14T01:29:46;99159.62;;;5.76;100.00
75891;BME280;64571;47.512;19.054;2023-12-14T01:32:48;99142.19;;;5.80;100.00
75891;BME280;64571;47.512;19.054;2023-12-14T01:35:51;99137.22;;;5.82;100.00
75891;BME280;64571;47.512;19.054;2023-12-14T01:38:53;99124.03;;;5.79;100.00
75891;BME280;64571;47.512;19.054;2023-12-14T01:41:56;99140.47;;;5.84;100.00
75891;BME280;64571;47.512;19.054;2023-12-14T01:44:58;99139.66;;;5.84;100.00
75891;BME280;64571;47.512;19.054;2023-12-14T01:48:01;99141.09;;;5.81;100.00
75891;BME280;64571;47.512;19.054;2023-12-14T01:51:04;99125.66;;;5.80;100.00
75891;BME280;64571;47.512;19.054;2023-12-14T01:54:07;99121.34;;;5.74;100.00
75891;BME280;64571;47.512;19.054;2023-12-14T01:57:09;99105.78;;;5.65;100.00
75891;BME280;64571;47.512;19.054;2023-12-14T02:00:21;99132.69;;;5.73;100.00
75891;BME280;64571;47.512;19.054;2023-12-14T02:03:25;99138.63;;;5.61;100.00
75891;BME280;64571;47.512;19.054;2023-12-14T02:06:27;99140.88;;;5.59;100.00
75891;BME280;64571;47.512;19.054;2023-12-14T02:09:30;99162.91;;;5.59;100.00
75891;BME280;64571;47.512;19.054;2023-12-14T02:12:32;99178.31;;;5.60;100.00
75891;BME280;64571;47.512;19.054;2023-12-14T02:15:37;99170.31;;;5.40;100.00
75891;BME280;64571;47.512;19.054;2023-12-14T02:18:40;99153.31;;;5.32;100.00
75891;BME280;64571;47.512;19.054;2023-12-14T02:21:43;99159.53;;;5.43;100.00
75891;BME280;64571;47.512;19.054;2023-12-14T02:24:45;99160.94;;;5.41;100.00
75891;BME280;64571;47.512;19.054;2023-12-14T02:27:49;99174.25;;;5.33;100.00
75891;BME280;64571;47.512;19.054;2023-12-14T02:30:52;99173.00;;;5.45;100.00
75891;BME280;64571;47.512;19.054;2023-12-14T02:33:55;99176.59;;;5.45;100.00
75891;BME280;64571;47.512;19.054;2023-12-14T02:36:58;99177.47;;;5.41;100.00
75891;BME280;64571;47.512;19.054;2023-12-14T02:40:00;99172.47;;;5.43;100.00
75891;BME280;64571;47.512;19.054;2023-12-14T02:43:03;99167.69;;;5.29;100.00
75891;BME280;64571;47.512;19.054;2023-12-14T02:46:06;99201.16;;;5.42;100.00
75891;BME280;64571;47.512;19.054;2023-12-14T02:49:08;99216.03;;;5.41;100.00
75891;BME280;64571;47.512;19.054;2023-12-14T02:52:11;99194.88;;;5.36;100.00
75891;BME280;64571;47.512;19.054;2023-12-14T02:55:13;99174.31;;;5.28;100.00
75891;BME280;64571;47.512;19.054;2023-12-14T02:58:17;99178.87;;;5.38;100.00
75891;BME280;64571;47.512;19.054;2023-12-14T03:01:20;99178.00;;;5.43;100.00
75891;BME280;64571;47.512;19.054;2023-12-14T03:04:26;99171.66;;;5.42;100.00
75891;BME280;64571;47.512;19.054;2023-12-14T03:07:29;99145.63;;;5.29;100.00
75891;BME280;64571;47.512;19.054;2023-12-14T03:10:31;99147.22;;;5.36;100.00
75891;BME280;64571;47.512;19.054;2023-12-14T03:13:34;99172.66;;;5.51;100.00
75891;BME280;64571;47.512;19.054;2023-12-14T03:16:37;99177.66;;;5.49;100.00
75891;BME280;64571;47.512;19.054;2023-12-14T03:19:39;99187.00;;;5.48;100.00
75891;BME280;64571;47.512;19.054;2023-12-14T03:22:43;99174.72;;;5.41;100.00
75891;BME280;64571;47.512;19.054;2023-12-14T03:25:46;99184.56;;;5.47;100.00
75891;BME280;64571;47.512;19.054;2023-12-14T03:28:48;99182.91;;;5.46;100.00
75891;BME280;64571;47.512;19.054;2023-12-14T03:31:51;99203.13;;;5.60;100.00
75891;BME280;64571;47.512;19.054;2023-12-14T03:34:53;99215.78;;;5.61;100.00
75891;BME280;64571;47.512;19.054;2023-12-14T03:37:57;99222.66;;;5.64;100.00
75891;BME280;64571;47.512;19.054;2023-12-14T03:41:00;99211.47;;;5.55;100.00
75891;BME280;64571;47.512;19.054;2023-12-14T03:44:03;99238.31;;;5.68;100.00
75891;BME280;64571;47.512;19.054;2023-12-14T03:47:06;99229.88;;;5.59;100.00
75891;BME280;64571;47.512;19.054;2023-12-14T03:50:11;99240.06;;;5.59;100.00
75891;BME280;64571;47.512;19.054;2023-12-14T03:53:14;99272.13;;;5.74;100.00
75891;BME280;64571;47.512;19.054;2023-12-14T03:56:16;99262.69;;;5.56;100.00
75891;BME280;64571;47.512;19.054;2023-12-14T03:59:19;99252.72;;;5.60;100.00
75891;BME280;64571;47.512;19.054;2023-12-14T04:02:21;99273.50;;;5.76;100.00
75891;BME280;64571;47.512;19.054;2023-12-14T04:05:24;99264.47;;;5.90;100.00
75891;BME280;64571;47.512;19.054;2023-12-14T04:08:27;99249.88;;;5.89;100.00
75891;BME280;64571;47.512;19.054;2023-12-14T04:11:29;99280.34;;;6.03;100.00
75891;BME280;64571;47.512;19.054;2023-12-14T04:14:32;99277.00;;;6.06;100.00
75891;BME280;64571;47.512;19.054;2023-12-14T04:17:35;99265.50;;;5.99;100.00
75891;BME280;64571;47.512;19.054;2023-12-14T04:20:38;99289.97;;;6.24;100.00
75891;BME280;64571;47.512;19.054;2023-12-14T04:23:40;99268.97;;;6.09;99.70
75891;BME280;64571;47.512;19.054;2023-12-14T04:26:43;99290.06;;;6.19;100.00
75891;BME280;64571;47.512;19.054;2023-12-14T04:29:46;99292.50;;;6.02;100.00
75891;BME280;64571;47.512;19.054;2023-12-14T04:32:48;99280.03;;;5.80;100.00
75891;BME280;64571;47.512;19.054;2023-12-14T04:35:51;99299.63;;;5.79;100.00
75891;BME280;64571;47.512;19.054;2023-12-14T04:38:54;99286.44;;;5.76;100.00
75891;BME280;64571;47.512;19.054;2023-12-14T04:41:57;99294.50;;;5.72;100.00
75891;BME280;64571;47.512;19.054;2023-12-14T04:44:59;99272.59;;;5.57;100.00
75891;BME280;64571;47.512;19.054;2023-12-14T04:48:02;99293.44;;;5.68;100.00
75891;BME280;64571;47.512;19.054;2023-12-14T04:51:04;99311.38;;;5.66;100.00
75891;BME280;64571;47.512;19.054;2023-12-14T04:54:08;99316.31;;;5.69;100.00
75891;BME280;64571;47.512;19.054;2023-12-14T04:57:10;99321.00;;;5.68;100.00
75891;BME280;64571;47.512;19.054;2023-12-14T05:00:13;99299.09;;;5.53;100.00
75891;BME280;64571;47.512;19.054;2023-12-14T05:03:16;99311.59;;;5.69;100.00
75891;BME280;64571;47.512;19.054;2023-12-14T05:06:19;99298.00;;;5.54;100.00
75891;BME280;64571;47.512;19.054;2023-12-14T05:09:21;99322.97;;;5.63;100.00
75891;BME280;64571;47.512;19.054;2023-12-14T05:12:24;99328.84;;;5.56;100.00
75891;BME280;64571;47.512;19.054;2023-12-14T05:15:29;99322.84;;;5.49;100.00
75891;BME280;64571;47.512;19.054;2023-12-14T05:18:31;99334.47;;;5.46;100.00
75891;BME280;64571;47.512;19.054;2023-12-14T05:21:34;99331.97;;;5.44;100.00
75891;BME280;64571;47.512;19.054;2023-12-14T05:24:36;99339.16;;;5.45;100.00
75891;BME280;64571;47.512;19.054;2023-12-14T05:27:39;99325.50;;;5.30;100.00
75891;BME280;64571;47.512;19.054;2023-12-14T05:30:42;99338.09;;;5.41;100.00
75891;BME280;64571;47.512;19.054;2023-12-14T05:33:44;99354.00;;;5.49;100.00
75891;BME280;64571;47.512;19.054;2023-12-14T05:36:47;99342.47;;;5.42;100.00
75891;BME280;64571;47.512;19.054;2023-12-14T05:39:50;99361.91;;;5.56;100.00
75891;BME280;64571;47.512;19.054;2023-12-14T05:42:52;99361.72;;;5.47;100.00
75891;BME280;64571;47.512;19.054;2023-12-14T05:45:55;99375.94;;;5.59;100.00
75891;BME280;64571;47.512;19.054;2023-12-14T05:48:57;99383.13;;;5.55;100.00
75891;BME280;64571;47.512;19.054;2023-12-14T05:52:00;99386.75;;;5.51;100.00
75891;BME280;64571;47.512;19.054;2023-12-14T05:55:04;99401.06;;;5.53;100.00
75891;BME280;64571;47.512;19.054;2023-12-14T05:58:06;99399.47;;;5.47;100.00
75891;BME280;64571;47.512;19.054;2023-12-14T06:01:10;99403.59;;;5.44;100.00
75891;BME280;64571;47.512;19.054;2023-12-14T06:04:12;99384.72;;;5.32;100.00
75891;BME280;64571;47.512;19.054;2023-12-14T06:07:15;99403.59;;;5.44;100.00
75891;BME280;64571;47.512;19.054;2023-12-14T06:10:18;99413.25;;;5.47;100.00
75891;BME280;64571;47.512;19.054;2023-12-14T06:13:20;99410.25;;;5.43;100.00
75891;BME280;64571;47.512;19.054;2023-12-14T06:16:24;99400.91;;;5.39;100.00
75891;BME280;64571;47.512;19.054;2023-12-14T06:19:26;99414.06;;;5.47;100.00
75891;BME280;64571;47.512;19.054;2023-12-14T06:22:29;99405.34;;;5.35;100.00
75891;BME280;64571;47.512;19.054;2023-12-14T06:25:31;99400.19;;;5.28;100.00
75891;BME280;64571;47.512;19.054;2023-12-14T06:28:34;99424.06;;;5.38;100.00
75891;BME280;64571;47.512;19.054;2023-12-14T06:31:37;99434.25;;;5.38;100.00
75891;BME280;64571;47.512;19.054;2023-12-14T06:34:40;99418.69;;;5.23;100.00
75891;BME280;64571;47.512;19.054;2023-12-14T06:37:42;99420.63;;;5.22;100.00
75891;BME280;64571;47.512;19.054;2023-12-14T06:40:45;99437.87;;;5.33;100.00
75891;BME280;64571;47.512;19.054;2023-12-14T06:43:48;99414.84;;;5.19;100.00
75891;BME280;64571;47.512;19.054;2023-12-14T06:46:51;99435.66;;;5.35;100.00
75891;BME280;64571;47.512;19.054;2023-12-14T06:49:53;99446.91;;;5.39;100.00
75891;BME280;64571;47.512;19.054;2023-12-14T06:52:56;99449.69;;;5.39;100.00
75891;BME280;64571;47.512;19.054;2023-12-14T06:55:58;99435.47;;;5.21;100.00
75891;BME280;64571;47.512;19.054;2023-12-14T06:59:01;99455.53;;;5.32;100.00
75891;BME280;64571;47.512;19.054;2023-12-14T07:02:03;99461.84;;;5.32;100.00
75891;BME280;64571;47.512;19.054;2023-12-14T07:05:06;99452.81;;;5.22;100.00
75891;BME280;64571;47.512;19.054;2023-12-14T07:08:09;99452.25;;;5.25;100.00
75891;BME280;64571;47.512;19.054;2023-12-14T07:11:12;99481.06;;;5.43;100.00
75891;BME280;64571;47.512;19.054;2023-12-14T07:14:15;99461.25;;;5.36;100.00
75891;BME280;64571;47.512;19.054;2023-12-14T07:17:18;99472.78;;;5.43;100.00
75891;BME280;64571;47.512;19.054;2023-12-14T07:20:21;99486.47;;;5.53;100.00
75891;BME280;64571;47.512;19.054;2023-12-14T07:23:24;99498.87;;;5.55;100.00
75891;BME280;64571;47.512;19.054;2023-12-14T07:26:26;99504.66;;;5.59;100.00
75891;BME280;64571;47.512;19.054;2023-12-14T07:29:29;99514.50;;;5.65;100.00
75891;BME280;64571;47.512;19.054;2023-12-14T07:32:31;99510.63;;;5.66;100.00
75891;BME280;64571;47.512;19.054;2023-12-14T07:35:34;99499.44;;;5.52;100.00
75891;BME280;64571;47.512;19.054;2023-12-14T07:38:37;99502.50;;;5.51;100.00
75891;BME280;64571;47.512;19.054;2023-12-14T07:41:40;99522.72;;;5.70;100.00
75891;BME280;64571;47.512;19.054;2023-12-14T07:44:42;99519.94;;;5.75;100.00
75891;BME280;64571;47.512;19.054;2023-12-14T07:47:45;99526.22;;;5.86;100.00
75891;BME280;64571;47.512;19.054;2023-12-14T07:50:48;99523.16;;;5.88;100.00
75891;BME280;64571;47.512;19.054;2023-12-14T07:53:51;99536.87;;;5.98;100.00
75891;BME280;64571;47.512;19.054;2023-12-14T07:56:54;99522.63;;;5.86;100.00
75891;BME280;64571;47.512;19.054;2023-12-14T07:59:57;99551.72;;;6.02;100.00
75891;BME280;64571;47.512;19.054;2023-12-14T08:02:59;99550.03;;;6.06;100.00
75891;BME280;64571;47.512;19.054;2023-12-14T08:06:03;99542.84;;;6.10;100.00
75891;BME280;64571;47.512;19.054;2023-12-14T08:09:06;99546.22;;;6.02;100.00
75891;BME280;64571;47.512;19.054;2023-12-14T08:12:09;99561.66;;;6.03;100.00
75891;BME280;64571;47.512;19.054;2023-12-14T08:15:11;99565.72;;;6.11;100.00
75891;BME280;64571;47.512;19.054;2023-12-14T08:18:14;99575.41;;;6.08;100.00
75891;BME280;64571;47.512;19.054;2023-12-14T08:21:17;99576.75;;;6.11;100.00
75891;BME280;64571;47.512;19.054;2023-12-14T08:24:21;99558.87;;;6.03;100.00
75891;BME280;64571;47.512;19.054;2023-12-14T08:27:23;99574.06;;;6.05;99.68
75891;BME280;64571;47.512;19.054;2023-12-14T08:30:26;99588.63;;;6.11;99.66
75891;BME280;64571;47.512;19.054;2023-12-14T08:33:29;99572.94;;;6.06;99.90
75891;BME280;64571;47.512;19.054;2023-12-14T08:36:34;99579.22;;;6.12;99.70
75891;BME280;64571;47.512;19.054;2023-12-14T08:39:36;99584.16;;;6.15;99.65
75891;BME280;64571;47.512;19.054;2023-12-14T08:42:39;99604.50;;;6.24;99.45
75891;BME280;64571;47.512;19.054;2023-12-14T08:45:41;99589.69;;;6.15;99.66
75891;BME280;64571;47.512;19.054;2023-12-14T08:48:44;99598.94;;;6.29;99.19
75891;BME280;64571;47.512;19.054;2023-12-14T08:51:46;99589.13;;;6.18;99.15
75891;BME280;64571;47.512;19.054;2023-12-14T08:54:49;99593.47;;;6.24;99.19
75891;BME280;64571;47.512;19.054;2023-12-14T08:57:52;99589.59;;;6.25;98.83
75891;BME280;64571;47.512;19.054;2023-12-14T09:00:55;99617.59;;;6.43;99.29
75891;BME280;64571;47.512;19.054;2023-12-14T09:03:57;99619.22;;;6.44;98.74
75891;BME280;64571;47.512;19.054;2023-12-14T09:07:00;99623.09;;;6.43;98.42
75891;BME280;64571;47.512;19.054;2023-12-14T09:10:03;99617.88;;;6.41;98.32
75891;BME280;64571;47.512;19.054;2023-12-14T09:13:06;99636.34;;;6.46;98.05
75891;BME280;64571;47.512;19.054;2023-12-14T09:16:08;99610.19;;;6.38;97.69
75891;BME280;64571;47.512;19.054;2023-12-14T09:19:11;99642.97;;;6.45;96.93
75891;BME280;64571;47.512;19.054;2023-12-14T09:22:14;99612.97;;;6.33;96.98
75891;BME280;64571;47.512;19.054;2023-12-14T09:25:16;99626.69;;;6.43;97.10
75891;BME280;64571;47.512;19.054;2023-12-14T09:28:19;99634.84;;;6.58;96.61
75891;BME280;64571;47.512;19.054;2023-12-14T09:31:21;99634.25;;;6.62;96.43
75891;BME280;64571;47.512;19.054;2023-12-14T09:34:24;99643.53;;;6.71;96.43
75891;BME280;64571;47.512;19.054;2023-12-14T09:37:27;99629.56;;;6.62;95.79
75891;BME280;64571;47.512;19.054;2023-12-14T09:40:30;99657.84;;;6.78;95.35
75891;BME280;64571;47.512;19.054;2023-12-14T09:43:33;99637.13;;;6.75;95.15
75891;BME280;64571;47.512;19.054;2023-12-14T09:46:37;99645.41;;;6.80;95.12
75891;BME280;64571;47.512;19.054;2023-12-14T09:49:41;99663.44;;;6.97;95.13
75891;BME280;64571;47.512;19.054;2023-12-14T09:52:45;99667.50;;;7.04;94.81
75891;BME280;64571;47.512;19.054;2023-12-14T09:55:50;99665.25;;;7.06;94.18
75891;BME280;64571;47.512;19.054;2023-12-14T09:58:53;99672.09;;;7.14;94.32
75891;BME280;64571;47.512;19.054;2023-12-14T10:02:10;99672.59;;;7.21;94.05
75891;BME280;64571;47.512;19.054;2023-12-14T10:05:13;99670.63;;;7.22;93.45
75891;BME280;64571;47.512;19.054;2023-12-14T10:08:16;99680.31;;;7.19;92.96
75891;BME280;64571;47.512;19.054;2023-12-14T10:11:19;99667.25;;;7.01;93.15
75891;BME280;64571;47.512;19.054;2023-12-14T10:14:24;99661.03;;;7.14;93.33
75891;BME280;64571;47.512;19.054;2023-12-14T10:17:28;99673.78;;;7.10;92.91
75891;BME280;64571;47.512;19.054;2023-12-14T10:20:35;99673.84;;;7.05;92.75
75891;BME280;64571;47.512;19.054;2023-12-14T10:23:40;99677.03;;;7.17;93.19
75891;BME280;64571;47.512;19.054;2023-12-14T10:26:45;99693.25;;;7.24;92.95
75891;BME280;64571;47.512;19.054;2023-12-14T10:29:48;99703.16;;;7.30;92.69
75891;BME280;64571;47.512;19.054;2023-12-14T10:32:53;99702.38;;;7.24;92.64
75891;BME280;64571;47.512;19.054;2023-12-14T10:35:56;99693.50;;;7.27;92.30
75891;BME280;64571;47.512;19.054;2023-12-14T10:39:00;99699.03;;;7.27;92.25
75891;BME280;64571;47.512;19.054;2023-12-14T10:42:03;99703.03;;;7.40;92.21
75891;BME280;64571;47.512;19.054;2023-12-14T10:45:24;99711.84;;;7.42;91.89
75891;BME280;64571;47.512;19.054;2023-12-14T10:48:29;99695.56;;;7.41;92.00
75891;BME280;64571;47.512;19.054;2023-12-14T10:51:33;99716.16;;;7.53;91.76
75891;BME280;64571;47.512;19.054;2023-12-14T10:54:40;99705.88;;;7.35;91.78
75891;BME280;64571;47.512;19.054;2023-12-14T10:57:45;99711.22;;;7.26;91.82
75891;BME280;64571;47.512;19.054;2023-12-14T11:01:00;99726.28;;;7.39;91.98
75891;BME280;64571;47.512;19.054;2023-12-14T11:04:06;99726.78;;;7.41;91.93
75891;BME280;64571;47.512;19.054;2023-12-14T11:07:10;99737.28;;;7.44;91.84
75891;BME280;64571;47.512;19.054;2023-12-14T11:10:14;99742.56;;;7.41;92.28
75891;BME280;64571;47.512;19.054;2023-12-14T11:13:17;99726.72;;;7.22;92.32
75891;BME280;64571;47.512;19.054;2023-12-14T11:16:20;99754.75;;;7.40;92.58
75891;BME280;64571;47.512;19.054;2023-12-14T11:19:27;99730.19;;;7.33;92.74
75891;BME280;64571;47.512;19.054;2023-12-14T11:22:30;99751.38;;;7.43;92.57
75891;BME280;64571;47.512;19.054;2023-12-14T11:25:35;99746.06;;;7.46;92.36
75891;BME280;64571;47.512;19.054;2023-12-14T11:28:48;99742.44;;;7.51;92.09
75891;BME280;64571;47.512;19.054;2023-12-14T11:31:51;99740.38;;;7.61;91.90
75891;BME280;64571;47.512;19.054;2023-12-14T11:34:55;99745.03;;;7.66;91.81
75891;BME280;64571;47.512;19.054;2023-12-14T11:37:58;99755.16;;;7.76;91.78
75891;BME280;64571;47.512;19.054;2023-12-14T11:41:02;99758.19;;;7.74;90.86
75891;BME280;64571;47.512;19.054;2023-12-14T11:44:05;99743.50;;;7.55;91.25
75891;BME280;64571;47.512;19.054;2023-12-14T11:47:09;99753.34;;;7.66;91.19
75891;BME280;64571;47.512;19.054;2023-12-14T11:50:12;99759.78;;;7.80;90.88
75891;BME280;64571;47.512;19.054;2023-12-14T11:53:15;99752.06;;;7.77;90.91
75891;BME280;64571;47.512;19.054;2023-12-14T11:56:18;99764.19;;;7.81;90.31
75891;BME280;64571;47.512;19.054;2023-12-14T11:59:21;99744.59;;;7.78;90.50
75891;BME280;64571;47.512;19.054;2023-12-14T12:02:24;99752.56;;;7.84;90.39
75891;BME280;64571;47.512;19.054;2023-12-14T12:05:41;99776.12;;;8.01;90.02
75891;BME280;64571;47.512;19.054;2023-12-14T12:08:44;99766.56;;;7.93;89.74
75891;BME280;64571;47.512;19.054;2023-12-14T12:11:47;99755.91;;;7.81;90.05
75891;BME280;64571;47.512;19.054;2023-12-14T12:14:51;99776.81;;;7.93;90.32
75891;BME280;64571;47.512;19.054;2023-12-14T12:17:55;99774.75;;;7.79;90.29
75891;BME280;64571;47.512;19.054;2023-12-14T12:20:57;99779.44;;;8.03;90.31
75891;BME280;64571;47.512;19.054;2023-12-14T12:24:06;99781.31;;;8.07;89.64
75891;BME280;64571;47.512;19.054;2023-12-14T12:27:27;99767.00;;;8.00;89.19
75891;BME280;64571;47.512;19.054;2023-12-14T12:30:30;99771.53;;;8.15;88.54
75891;BME280;64571;47.512;19.054;2023-12-14T12:33:32;99780.84;;;8.19;88.69
75891;BME280;64571;47.512;19.054;2023-12-14T12:36:41;99795.25;;;8.21;88.35
75891;BME280;64571;47.512;19.054;2023-12-14T12:39:43;99810.78;;;8.17;88.77
75891;BME280;64571;47.512;19.054;2023-12-14T12:42:47;99815.44;;;8.22;88.68
75891;BME280;64571;47.512;19.054;2023-12-14T12:45:52;99813.62;;;8.12;88.69
75891;BME280;64571;47.512;19.054;2023-12-14T12:48:55;99820.06;;;8.26;89.33
75891;BME280;64571;47.512;19.054;2023-12-14T12:51:57;99817.97;;;8.18;89.10
75891;BME280;64571;47.512;19.054;2023-12-14T12:55:00;99805.38;;;8.07;89.33
75891;BME280;64571;47.512;19.054;2023-12-14T12:58:02;99827.97;;;8.14;88.98
75891;BME280;64571;47.512;19.054;2023-12-14T13:01:08;99841.25;;;8.17;88.94
75891;BME280;64571;47.512;19.054;2023-12-14T13:04:21;99821.19;;;8.06;88.98
75891;BME280;64571;47.512;19.054;2023-12-14T13:07:24;99846.19;;;8.20;88.87
75891;BME280;64571;47.512;19.054;2023-12-14T13:10:26;99856.72;;;8.18;88.81
75891;BME280;64571;47.512;19.054;2023-12-14T13:13:34;99865.91;;;8.13;89.02
75891;BME280;64571;47.512;19.054;2023-12-14T13:16:37;99844.84;;;7.94;89.46
75891;BME280;64571;47.512;19.054;2023-12-14T13:19:40;99862.50;;;7.98;89.68
75891;BME280;64571;47.512;19.054;2023-12-14T13:22:42;99852.59;;;7.92;89.88
75891;BME280;64571;47.512;19.054;2023-12-14T13:25:45;99857.91;;;7.88;90.11
75891;BME280;64571;47.512;19.054;2023-12-14T13:28:48;99863.37;;;7.93;90.21
75891;BME280;64571;47.512;19.054;2023-12-14T13:31:51;99877.16;;;7.98;90.20
75891;BME280;64571;47.512;19.054;2023-12-14T13:34:53;99879.19;;;7.87;91.11
75891;BME280;64571;47.512;19.054;2023-12-14T13:37:56;99889.94;;;7.94;90.92
75891;BME280;64571;47.512;19.054;2023-12-14T13:41:02;99897.69;;;7.92;90.84
75891;BME280;64571;47.512;19.054;2023-12-14T13:44:08;99890.88;;;7.84;91.24
75891;BME280;64571;47.512;19.054;2023-12-14T13:47:10;99909.59;;;7.93;90.82
75891;BME280;64571;47.512;19.054;2023-12-14T13:50:13;99924.53;;;7.92;91.44
75891;BME280;64571;47.512;19.054;2023-12-14T13:53:16;99916.53;;;7.90;91.32
75891;BME280;64571;47.512;19.054;2023-12-14T13:56:20;99926.78;;;7.90;91.61
75891;BME280;64571;47.512;19.054;2023-12-14T13:59:23;99925.13;;;7.89;91.38
75891;BME280;64571;47.512;19.054;2023-12-14T14:02:26;99937.84;;;7.90;91.52
75891;BME280;64571;47.512;19.054;2023-12-14T14:05:32;99946.44;;;7.88;91.37
75891;BME280;64571;47.512;19.054;2023-12-14T14:08:35;99957.25;;;7.84;91.60
75891;BME280;64571;47.512;19.054;2023-12-14T14:11:38;99947.94;;;7.75;91.87
75891;BME280;64571;47.512;19.054;2023-12-14T14:14:43;99966.19;;;7.76;92.15
75891;BME280;64571;47.512;19.054;2023-12-14T14:17:46;99972.03;;;7.75;92.57
75891;BME280;64571;47.512;19.054;2023-12-14T14:20:53;99973.94;;;7.74;92.76
75891;BME280;64571;47.512;19.054;2023-12-14T14:23:56;99950.31;;;7.58;92.68
75891;BME280;64571;47.512;19.054;2023-12-14T14:26:58;99960.25;;;7.59;92.25
75891;BME280;64571;47.512;19.054;2023-12-14T14:30:02;99979.81;;;7.68;92.58
75891;BME280;64571;47.512;19.054;2023-12-14T14:33:05;99983.75;;;7.61;92.85
75891;BME280;64571;47.512;19.054;2023-12-14T14:36:09;99991.22;;;7.61;93.20
75891;BME280;64571;47.512;19.054;2023-12-14T14:39:12;100003.37;;;7.60;93.44
75891;BME280;64571;47.512;19.054;2023-12-14T14:42:15;100010.59;;;7.56;93.74
75891;BME280;64571;47.512;19.054;2023-12-14T14:45:18;100003.97;;;7.52;93.65
75891;BME280;64571;47.512;19.054;2023-12-14T14:48:21;99988.34;;;7.37;94.07
75891;BME280;64571;47.512;19.054;2023-12-14T14:51:24;100004.56;;;7.49;93.59
75891;BME280;64571;47.512;19.054;2023-12-14T14:54:28;99985.56;;;7.37;93.64
75891;BME280;64571;47.512;19.054;2023-12-14T14:57:30;100017.03;;;7.46;93.74
75891;BME280;64571;47.512;19.054;2023-12-14T15:00:34;100024.78;;;7.44;93.88
75891;BME280;64571;47.512;19.054;2023-12-14T15:03:41;100028.66;;;7.43;94.02
75891;BME280;64571;47.512;19.054;2023-12-14T15:06:44;100028.94;;;7.42;94.20
75891;BME280;64571;47.512;19.054;2023-12-14T15:09:46;100026.28;;;7.26;94.47
75891;BME280;64571;47.512;19.054;2023-12-14T15:12:49;100017.44;;;7.24;94.84
75891;BME280;64571;47.512;19.054;2023-12-14T15:15:51;100035.91;;;7.29;95.28
75891;BME280;64571;47.512;19.054;2023-12-14T15:18:54;100035.41;;;7.27;95.49
75891;BME280;64571;47.512;19.054;2023-12-14T15:21:59;100058.03;;;7.34;95.54
75891;BME280;64571;47.512;19.054;2023-12-14T15:25:02;100055.53;;;7.32;95.79
75891;BME280;64571;47.512;19.054;2023-12-14T15:28:06;100055.59;;;7.22;95.80
75891;BME280;64571;47.512;19.054;2023-12-14T15:31:09;100065.00;;;7.21;95.75
75891;BME280;64571;47.512;19.054;2023-12-14T15:34:11;100090.34;;;7.33;95.82
75891;BME280;64571;47.512;19.054;2023-12-14T15:37:14;100095.34;;;7.31;96.07
75891;BME280;64571;47.512;19.054;2023-12-14T15:40:17;100094.78;;;7.29;96.24
75891;BME280;64571;47.512;19.054;2023-12-14T15:43:19;100106.44;;;7.26;96.58
75891;BME280;64571;47.512;19.054;2023-12-14T15:46:22;100110.31;;;7.25;96.85
75891;BME280;64571;47.512;19.054;2023-12-14T15:49:25;100123.03;;;7.21;96.80
75891;BME280;64571;47.512;19.054;2023-12-14T15:52:27;100118.91;;;7.19;96.96
75891;BME280;64571;47.512;19.054;2023-12-14T15:55:30;100121.69;;;7.14;97.09
75891;BME280;64571;47.512;19.054;2023-12-14T15:58:34;100128.84;;;7.20;97.18
75891;BME280;64571;47.512;19.054;2023-12-14T16:01:37;100133.53;;;7.19;97.21
75891;BME280;64571;47.512;19.054;2023-12-14T16:04:42;100139.66;;;7.16;97.40